sensor_id;sensor_type;location;lat;lon;timestamp;P1;durP1;ratioP1;P2;durP2;ratioP2
67595;SDS011;54410;48.694;8.934;2022-07-23T00:00:49;5.07;;;4.57;;
67595;SDS011;54410;48.694;8.934;2022-07-23T00:03:15;4.70;;;4.30;;
67595;SDS011;54410;48.694;8.934;2022-07-23T00:05:41;4.95;;;4.53;;
67595;SDS011;54410;48.694;8.934;2022-07-23T00:08:08;4.60;;;4.20;;
67595;SDS011;54410;48.694;8.934;2022-07-23T00:10:34;4.82;;;4.50;;
67595;SDS011;54410;48.694;8.934;2022-07-23T00:13:00;5.57;;;4.50;;
67595;SDS011;54410;48.694;8.934;2022-07-23T00:15:26;5.65;;;4.50;;
67595;SDS011;54410;48.694;8.934;2022-07-23T00:17:52;5.90;;;4.95;;
67595;SDS011;54410;48.694;8.934;2022-07-23T00:20:18;7.72;;;5.05;;
67595;SDS011;54410;48.694;8.934;2022-07-23T00:22:51;5.53;;;4.68;;
67595;SDS011;54410;48.694;8.934;2022-07-23T00:25:18;5.50;;;4.82;;
67595;SDS011;54410;48.694;8.934;2022-07-23T00:27:44;5.93;;;5.00;;
67595;SDS011;54410;48.694;8.934;2022-07-23T00:30:10;5.88;;;4.88;;
67595;SDS011;54410;48.694;8.934;2022-07-23T00:32:46;6.78;;;4.97;;
67595;SDS011;54410;48.694;8.934;2022-07-23T00:35:13;5.78;;;4.47;;
67595;SDS011;54410;48.694;8.934;2022-07-23T00:37:39;5.20;;;4.75;;
67595;SDS011;54410;48.694;8.934;2022-07-23T00:40:05;5.88;;;5.38;;
67595;SDS011;54410;48.694;8.934;2022-07-23T00:42:31;7.35;;;5.40;;
67595;SDS011;54410;48.694;8.934;2022-07-23T00:44:57;5.50;;;5.00;;
67595;SDS011;54410;48.694;8.934;2022-07-23T00:47:23;6.78;;;5.07;;
67595;SDS011;54410;48.694;8.934;2022-07-23T00:49:49;5.47;;;4.97;;
67595;SDS011;54410;48.694;8.934;2022-07-23T00:52:15;5.55;;;5.05;;
67595;SDS011;54410;48.694;8.934;2022-07-23T00:54:41;5.28;;;4.78;;
67595;SDS011;54410;48.694;8.934;2022-07-23T00:57:08;6.15;;;4.82;;
67595;SDS011;54410;48.694;8.934;2022-07-23T00:59:34;5.57;;;4.97;;
67595;SDS011;54410;48.694;8.934;2022-07-23T01:02:00;5.15;;;4.72;;
67595;SDS011;54410;48.694;8.934;2022-07-23T01:04:26;5.53;;;5.03;;
67595;SDS011;54410;48.694;8.934;2022-07-23T01:06:52;5.70;;;5.18;;
67595;SDS011;54410;48.694;8.934;2022-07-23T01:09:18;5.95;;;5.03;;
67595;SDS011;54410;48.694;8.934;2022-07-23T01:11:44;6.82;;;4.90;;
67595;SDS011;54410;48.694;8.934;2022-07-23T01:14:11;5.88;;;5.32;;
67595;SDS011;54410;48.694;8.934;2022-07-23T01:16:38;6.00;;;5.40;;
67595;SDS011;54410;48.694;8.934;2022-07-23T01:19:05;6.05;;;5.40;;
67595;SDS011;54410;48.694;8.934;2022-07-23T01:21:32;5.80;;;5.28;;
67595;SDS011;54410;48.694;8.934;2022-07-23T01:23:58;5.30;;;4.80;;
67595;SDS011;54410;48.694;8.934;2022-07-23T01:26:24;5.43;;;4.90;;
67595;SDS011;54410;48.694;8.934;2022-07-23T01:28:50;5.45;;;5.00;;
67595;SDS011;54410;48.694;8.934;2022-07-23T01:31:16;6.38;;;5.63;;
67595;SDS011;54410;48.694;8.934;2022-07-23T01:33:44;6.22;;;5.70;;
67595;SDS011;54410;48.694;8.934;2022-07-23T01:36:10;6.15;;;5.65;;
67595;SDS011;54410;48.694;8.934;2022-07-23T01:38:36;6.40;;;5.80;;
67595;SDS011;54410;48.694;8.934;2022-07-23T01:41:02;5.82;;;5.32;;
67595;SDS011;54410;48.694;8.934;2022-07-23T01:43:28;6.20;;;5.63;;
67595;SDS011;54410;48.694;8.934;2022-07-23T01:45:54;6.00;;;5.50;;
67595;SDS011;54410;48.694;8.934;2022-07-23T01:48:19;6.93;;;5.50;;
67595;SDS011;54410;48.694;8.934;2022-07-23T01:50:48;6.40;;;5.57;;
67595;SDS011;54410;48.694;8.934;2022-07-23T01:53:14;5.63;;;5.05;;
67595;SDS011;54410;48.694;8.934;2022-07-23T01:55:40;6.18;;;5.57;;
67595;SDS011;54410;48.694;8.934;2022-07-23T01:58:06;6.30;;;5.65;;
67595;SDS011;54410;48.694;8.934;2022-07-23T02:00:32;6.43;;;5.82;;
67595;SDS011;54410;48.694;8.934;2022-07-23T02:02:59;7.18;;;6.47;;
67595;SDS011;54410;48.694;8.934;2022-07-23T02:05:25;6.43;;;5.57;;
67595;SDS011;54410;48.694;8.934;2022-07-23T02:07:53;6.35;;;5.60;;
67595;SDS011;54410;48.694;8.934;2022-07-23T02:10:19;6.60;;;6.00;;
67595;SDS011;54410;48.694;8.934;2022-07-23T02:12:45;6.10;;;5.47;;
67595;SDS011;54410;48.694;8.934;2022-07-23T02:15:11;5.80;;;5.30;;
67595;SDS011;54410;48.694;8.934;2022-07-23T02:17:37;6.50;;;5.90;;
67595;SDS011;54410;48.694;8.934;2022-07-23T02:20:04;6.53;;;5.93;;
67595;SDS011;54410;48.694;8.934;2022-07-23T02:22:30;7.30;;;6.60;;
67595;SDS011;54410;48.694;8.934;2022-07-23T02:24:56;6.40;;;5.80;;
67595;SDS011;54410;48.694;8.934;2022-07-23T02:27:22;6.68;;;6.07;;
67595;SDS011;54410;48.694;8.934;2022-07-23T02:29:48;6.00;;;5.40;;
67595;SDS011;54410;48.694;8.934;2022-07-23T02:32:15;5.70;;;5.20;;
67595;SDS011;54410;48.694;8.934;2022-07-23T02:34:41;6.28;;;5.35;;
67595;SDS011;54410;48.694;8.934;2022-07-23T02:37:07;6.30;;;5.70;;
67595;SDS011;54410;48.694;8.934;2022-07-23T02:39:34;7.38;;;5.88;;
67595;SDS011;54410;48.694;8.934;2022-07-23T02:42:00;5.80;;;5.20;;
67595;SDS011;54410;48.694;8.934;2022-07-23T02:44:26;6.70;;;6.10;;
67595;SDS011;54410;48.694;8.934;2022-07-23T02:46:52;6.47;;;5.97;;
67595;SDS011;54410;48.694;8.934;2022-07-23T02:49:18;6.57;;;5.97;;
67595;SDS011;54410;48.694;8.934;2022-07-23T02:51:44;6.45;;;5.90;;
67595;SDS011;54410;48.694;8.934;2022-07-23T02:54:10;8.18;;;5.50;;
67595;SDS011;54410;48.694;8.934;2022-07-23T02:56:36;6.00;;;5.43;;
67595;SDS011;54410;48.694;8.934;2022-07-23T02:59:02;5.95;;;5.35;;
67595;SDS011;54410;48.694;8.934;2022-07-23T03:01:28;6.30;;;5.80;;
67595;SDS011;54410;48.694;8.934;2022-07-23T03:03:54;6.57;;;5.93;;
67595;SDS011;54410;48.694;8.934;2022-07-23T03:06:20;5.95;;;5.25;;
67595;SDS011;54410;48.694;8.934;2022-07-23T03:08:46;6.00;;;5.50;;
67595;SDS011;54410;48.694;8.934;2022-07-23T03:11:12;6.57;;;5.97;;
67595;SDS011;54410;48.694;8.934;2022-07-23T03:13:38;5.97;;;5.47;;
67595;SDS011;54410;48.694;8.934;2022-07-23T03:16:04;6.05;;;5.55;;
67595;SDS011;54410;48.694;8.934;2022-07-23T03:18:30;5.78;;;5.25;;
67595;SDS011;54410;48.694;8.934;2022-07-23T03:20:56;6.00;;;5.60;;
67595;SDS011;54410;48.694;8.934;2022-07-23T03:23:22;6.65;;;5.90;;
67595;SDS011;54410;48.694;8.934;2022-07-23T03:25:48;6.30;;;5.80;;
67595;SDS011;54410;48.694;8.934;2022-07-23T03:28:15;6.28;;;5.75;;
67595;SDS011;54410;48.694;8.934;2022-07-23T03:30:41;6.10;;;5.60;;
67595;SDS011;54410;48.694;8.934;2022-07-23T03:33:08;6.30;;;5.78;;
67595;SDS011;54410;48.694;8.934;2022-07-23T03:35:34;6.07;;;5.57;;
67595;SDS011;54410;48.694;8.934;2022-07-23T03:38:00;5.72;;;5.20;;
67595;SDS011;54410;48.694;8.934;2022-07-23T03:40:25;6.10;;;5.57;;
67595;SDS011;54410;48.694;8.934;2022-07-23T03:42:51;5.45;;;4.90;;
67595;SDS011;54410;48.694;8.934;2022-07-23T03:45:17;6.43;;;5.50;;
67595;SDS011;54410;48.694;8.934;2022-07-23T03:47:43;5.55;;;5.10;;
67595;SDS011;54410;48.694;8.934;2022-07-23T03:50:09;5.75;;;5.32;;
67595;SDS011;54410;48.694;8.934;2022-07-23T03:52:35;6.43;;;5.68;;
67595;SDS011;54410;48.694;8.934;2022-07-23T03:55:02;5.93;;;5.40;;
67595;SDS011;54410;48.694;8.934;2022-07-23T03:57:28;7.20;;;5.57;;
67595;SDS011;54410;48.694;8.934;2022-07-23T03:59:54;6.68;;;6.07;;
67595;SDS011;54410;48.694;8.934;2022-07-23T04:02:20;6.38;;;5.63;;
67595;SDS011;54410;48.694;8.934;2022-07-23T04:04:46;6.72;;;5.93;;
67595;SDS011;54410;48.694;8.934;2022-07-23T04:07:12;6.60;;;6.00;;
67595;SDS011;54410;48.694;8.934;2022-07-23T04:09:38;6.10;;;5.60;;
67595;SDS011;54410;48.694;8.934;2022-07-23T04:12:07;6.80;;;5.80;;
67595;SDS011;54410;48.694;8.934;2022-07-23T04:14:33;6.03;;;5.43;;
67595;SDS011;54410;48.694;8.934;2022-07-23T04:16:59;6.50;;;5.80;;
67595;SDS011;54410;48.694;8.934;2022-07-23T04:19:25;6.07;;;5.57;;
67595;SDS011;54410;48.694;8.934;2022-07-23T04:21:51;6.60;;;5.57;;
67595;SDS011;54410;48.694;8.934;2022-07-23T04:24:17;6.13;;;5.55;;
67595;SDS011;54410;48.694;8.934;2022-07-23T04:26:43;6.38;;;5.75;;
67595;SDS011;54410;48.694;8.934;2022-07-23T04:29:09;6.38;;;5.78;;
67595;SDS011;54410;48.694;8.934;2022-07-23T04:31:35;6.22;;;5.63;;
67595;SDS011;54410;48.694;8.934;2022-07-23T04:34:01;6.10;;;5.60;;
67595;SDS011;54410;48.694;8.934;2022-07-23T04:36:27;7.35;;;5.97;;
67595;SDS011;54410;48.694;8.934;2022-07-23T04:38:53;6.72;;;5.95;;
67595;SDS011;54410;48.694;8.934;2022-07-23T04:41:19;6.07;;;5.55;;
67595;SDS011;54410;48.694;8.934;2022-07-23T04:43:46;6.85;;;5.80;;
67595;SDS011;54410;48.694;8.934;2022-07-23T04:46:12;6.88;;;5.95;;
67595;SDS011;54410;48.694;8.934;2022-07-23T04:48:38;5.93;;;5.25;;
67595;SDS011;54410;48.694;8.934;2022-07-23T04:51:04;6.38;;;5.78;;
67595;SDS011;54410;48.694;8.934;2022-07-23T04:53:31;5.63;;;5.13;;
67595;SDS011;54410;48.694;8.934;2022-07-23T04:55:57;5.45;;;4.95;;
67595;SDS011;54410;48.694;8.934;2022-07-23T04:58:23;5.63;;;5.10;;
67595;SDS011;54410;48.694;8.934;2022-07-23T05:00:49;5.63;;;5.13;;
67595;SDS011;54410;48.694;8.934;2022-07-23T05:03:15;5.78;;;5.15;;
67595;SDS011;54410;48.694;8.934;2022-07-23T05:05:41;5.22;;;4.72;;
67595;SDS011;54410;48.694;8.934;2022-07-23T05:08:07;6.72;;;5.40;;
67595;SDS011;54410;48.694;8.934;2022-07-23T05:10:33;5.25;;;4.75;;
67595;SDS011;54410;48.694;8.934;2022-07-23T05:12:59;5.53;;;5.03;;
67595;SDS011;54410;48.694;8.934;2022-07-23T05:15:25;5.68;;;5.18;;
67595;SDS011;54410;48.694;8.934;2022-07-23T05:17:51;5.50;;;4.88;;
67595;SDS011;54410;48.694;8.934;2022-07-23T05:20:17;5.25;;;4.68;;
67595;SDS011;54410;48.694;8.934;2022-07-23T05:22:42;5.10;;;4.70;;
67595;SDS011;54410;48.694;8.934;2022-07-23T05:25:08;5.80;;;4.57;;
67595;SDS011;54410;48.694;8.934;2022-07-23T05:27:34;4.47;;;4.07;;
67595;SDS011;54410;48.694;8.934;2022-07-23T05:30:00;4.78;;;4.25;;
67595;SDS011;54410;48.694;8.934;2022-07-23T05:32:26;4.95;;;4.18;;
67595;SDS011;54410;48.694;8.934;2022-07-23T05:34:52;4.70;;;4.30;;
67595;SDS011;54410;48.694;8.934;2022-07-23T05:37:18;4.80;;;4.40;;
67595;SDS011;54410;48.694;8.934;2022-07-23T05:39:44;5.57;;;4.20;;
67595;SDS011;54410;48.694;8.934;2022-07-23T05:42:10;5.50;;;4.22;;
67595;SDS011;54410;48.694;8.934;2022-07-23T05:44:36;4.65;;;4.25;;
67595;SDS011;54410;48.694;8.934;2022-07-23T05:47:02;4.80;;;4.40;;
67595;SDS011;54410;48.694;8.934;2022-07-23T05:49:28;5.63;;;4.30;;
67595;SDS011;54410;48.694;8.934;2022-07-23T05:51:54;4.80;;;4.40;;
67595;SDS011;54410;48.694;8.934;2022-07-23T05:54:20;4.65;;;4.25;;
67595;SDS011;54410;48.694;8.934;2022-07-23T05:56:46;5.38;;;4.57;;
67595;SDS011;54410;48.694;8.934;2022-07-23T05:59:12;5.00;;;4.50;;
67595;SDS011;54410;48.694;8.934;2022-07-23T06:01:39;4.65;;;4.25;;
67595;SDS011;54410;48.694;8.934;2022-07-23T06:04:05;4.43;;;4.03;;
67595;SDS011;54410;48.694;8.934;2022-07-23T06:06:31;4.47;;;4.13;;
67595;SDS011;54410;48.694;8.934;2022-07-23T06:08:57;4.50;;;3.92;;
67595;SDS011;54410;48.694;8.934;2022-07-23T06:11:23;4.55;;;4.13;;
67595;SDS011;54410;48.694;8.934;2022-07-23T06:13:49;4.38;;;3.92;;
67595;SDS011;54410;48.694;8.934;2022-07-23T06:16:15;4.85;;;4.05;;
67595;SDS011;54410;48.694;8.934;2022-07-23T06:18:41;5.13;;;3.88;;
67595;SDS011;54410;48.694;8.934;2022-07-23T06:21:07;3.80;;;3.50;;
67595;SDS011;54410;48.694;8.934;2022-07-23T06:23:32;4.38;;;3.90;;
67595;SDS011;54410;48.694;8.934;2022-07-23T06:25:58;6.07;;;4.00;;
67595;SDS011;54410;48.694;8.934;2022-07-23T06:28:23;4.38;;;3.88;;
67595;SDS011;54410;48.694;8.934;2022-07-23T06:30:49;5.65;;;4.25;;
67595;SDS011;54410;48.694;8.934;2022-07-23T06:33:15;5.05;;;4.65;;
67595;SDS011;54410;48.694;8.934;2022-07-23T06:35:41;6.45;;;4.97;;
67595;SDS011;54410;48.694;8.934;2022-07-23T06:38:07;6.22;;;4.93;;
67595;SDS011;54410;48.694;8.934;2022-07-23T06:40:33;5.40;;;4.93;;
67595;SDS011;54410;48.694;8.934;2022-07-23T06:42:59;5.88;;;5.10;;
67595;SDS011;54410;48.694;8.934;2022-07-23T06:45:25;6.97;;;5.38;;
67595;SDS011;54410;48.694;8.934;2022-07-23T06:47:51;5.60;;;5.10;;
67595;SDS011;54410;48.694;8.934;2022-07-23T06:50:17;5.70;;;5.07;;
67595;SDS011;54410;48.694;8.934;2022-07-23T06:52:43;6.15;;;5.32;;
67595;SDS011;54410;48.694;8.934;2022-07-23T06:55:09;6.32;;;5.72;;
67595;SDS011;54410;48.694;8.934;2022-07-23T06:57:35;5.32;;;4.93;;
67595;SDS011;54410;48.694;8.934;2022-07-23T07:00:02;6.45;;;5.55;;
67595;SDS011;54410;48.694;8.934;2022-07-23T07:02:28;6.60;;;6.00;;
67595;SDS011;54410;48.694;8.934;2022-07-23T07:04:54;6.07;;;5.57;;
67595;SDS011;54410;48.694;8.934;2022-07-23T07:07:21;5.95;;;5.35;;
67595;SDS011;54410;48.694;8.934;2022-07-23T07:09:47;5.38;;;4.88;;
67595;SDS011;54410;48.694;8.934;2022-07-23T07:12:13;8.25;;;5.70;;
67595;SDS011;54410;48.694;8.934;2022-07-23T07:14:39;5.32;;;4.82;;
67595;SDS011;54410;48.694;8.934;2022-07-23T07:17:05;5.72;;;5.20;;
67595;SDS011;54410;48.694;8.934;2022-07-23T07:19:31;8.38;;;5.40;;
67595;SDS011;54410;48.694;8.934;2022-07-23T07:21:57;5.70;;;5.20;;
67595;SDS011;54410;48.694;8.934;2022-07-23T07:24:23;5.22;;;4.75;;
67595;SDS011;54410;48.694;8.934;2022-07-23T07:26:49;5.55;;;5.03;;
67595;SDS011;54410;48.694;8.934;2022-07-23T07:29:15;5.35;;;4.85;;
67595;SDS011;54410;48.694;8.934;2022-07-23T07:31:41;5.10;;;4.47;;
67595;SDS011;54410;48.694;8.934;2022-07-23T07:34:07;5.38;;;4.88;;
67595;SDS011;54410;48.694;8.934;2022-07-23T07:36:33;4.88;;;4.47;;
67595;SDS011;54410;48.694;8.934;2022-07-23T07:38:59;4.93;;;4.50;;
67595;SDS011;54410;48.694;8.934;2022-07-23T07:41:25;8.95;;;4.90;;
67595;SDS011;54410;48.694;8.934;2022-07-23T07:43:51;4.90;;;4.05;;
67595;SDS011;54410;48.694;8.934;2022-07-23T07:46:17;5.03;;;4.63;;
67595;SDS011;54410;48.694;8.934;2022-07-23T07:48:43;4.40;;;3.97;;
67595;SDS011;54410;48.694;8.934;2022-07-23T07:51:09;4.90;;;3.97;;
67595;SDS011;54410;48.694;8.934;2022-07-23T07:53:35;4.45;;;3.60;;
67595;SDS011;54410;48.694;8.934;2022-07-23T07:56:01;4.72;;;4.22;;
67595;SDS011;54410;48.694;8.934;2022-07-23T07:58:27;4.95;;;3.80;;
67595;SDS011;54410;48.694;8.934;2022-07-23T08:00:53;4.70;;;4.30;;
67595;SDS011;54410;48.694;8.934;2022-07-23T08:03:19;4.47;;;4.07;;
67595;SDS011;54410;48.694;8.934;2022-07-23T08:05:45;3.95;;;3.65;;
67595;SDS011;54410;48.694;8.934;2022-07-23T08:08:11;6.13;;;4.47;;
67595;SDS011;54410;48.694;8.934;2022-07-23T08:10:40;5.00;;;4.13;;
67595;SDS011;54410;48.694;8.934;2022-07-23T08:13:06;5.03;;;4.57;;
67595;SDS011;54410;48.694;8.934;2022-07-23T08:15:32;6.43;;;5.18;;
67595;SDS011;54410;48.694;8.934;2022-07-23T08:17:58;5.40;;;4.90;;
67595;SDS011;54410;48.694;8.934;2022-07-23T08:20:24;5.18;;;4.70;;
67595;SDS011;54410;48.694;8.934;2022-07-23T08:22:54;6.32;;;4.63;;
67595;SDS011;54410;48.694;8.934;2022-07-23T08:25:22;4.88;;;4.47;;
67595;SDS011;54410;48.694;8.934;2022-07-23T08:27:49;4.70;;;4.30;;
67595;SDS011;54410;48.694;8.934;2022-07-23T08:30:15;4.30;;;4.00;;
67595;SDS011;54410;48.694;8.934;2022-07-23T08:32:54;4.45;;;4.05;;
67595;SDS011;54410;48.694;8.934;2022-07-23T08:35:24;4.18;;;3.78;;
67595;SDS011;54410;48.694;8.934;2022-07-23T08:37:51;3.90;;;3.60;;
67595;SDS011;54410;48.694;8.934;2022-07-23T08:40:17;4.10;;;3.78;;
67595;SDS011;54410;48.694;8.934;2022-07-23T08:42:44;3.35;;;3.13;;
67595;SDS011;54410;48.694;8.934;2022-07-23T08:45:19;3.90;;;3.50;;
67595;SDS011;54410;48.694;8.934;2022-07-23T08:47:47;4.00;;;3.70;;
67595;SDS011;54410;48.694;8.934;2022-07-23T08:50:14;3.75;;;3.45;;
67595;SDS011;54410;48.694;8.934;2022-07-23T08:52:40;4.10;;;3.70;;
67595;SDS011;54410;48.694;8.934;2022-07-23T08:55:07;4.13;;;3.80;;
67595;SDS011;54410;48.694;8.934;2022-07-23T08:57:33;6.43;;;3.67;;
67595;SDS011;54410;48.694;8.934;2022-07-23T08:59:59;3.97;;;3.60;;
67595;SDS011;54410;48.694;8.934;2022-07-23T09:02:25;4.13;;;3.65;;
67595;SDS011;54410;48.694;8.934;2022-07-23T09:04:51;3.67;;;3.10;;
67595;SDS011;54410;48.694;8.934;2022-07-23T09:07:16;3.83;;;3.47;;
67595;SDS011;54410;48.694;8.934;2022-07-23T09:09:42;4.35;;;3.20;;
67595;SDS011;54410;48.694;8.934;2022-07-23T09:12:09;3.72;;;3.30;;
67595;SDS011;54410;48.694;8.934;2022-07-23T09:14:39;3.97;;;3.60;;
67595;SDS011;54410;48.694;8.934;2022-07-23T09:17:13;3.85;;;3.30;;
67595;SDS011;54410;48.694;8.934;2022-07-23T09:19:40;4.55;;;3.33;;
67595;SDS011;54410;48.694;8.934;2022-07-23T09:22:23;4.13;;;3.42;;
67595;SDS011;54410;48.694;8.934;2022-07-23T09:30:18;3.80;;;3.50;;
67595;SDS011;54410;48.694;8.934;2022-07-23T09:32:44;3.70;;;3.40;;
67595;SDS011;54410;48.694;8.934;2022-07-23T09:35:51;3.85;;;3.55;;
67595;SDS011;54410;48.694;8.934;2022-07-23T09:38:20;3.65;;;3.30;;
67595;SDS011;54410;48.694;8.934;2022-07-23T09:41:04;3.83;;;3.53;;
67595;SDS011;54410;48.694;8.934;2022-07-23T09:43:33;3.97;;;3.20;;
67595;SDS011;54410;48.694;8.934;2022-07-23T09:48:53;3.80;;;3.50;;
67595;SDS011;54410;48.694;8.934;2022-07-23T09:51:21;3.83;;;3.53;;
67595;SDS011;54410;48.694;8.934;2022-07-23T09:53:54;4.10;;;3.75;;
67595;SDS011;54410;48.694;8.934;2022-07-23T09:56:20;3.72;;;3.42;;
67595;SDS011;54410;48.694;8.934;2022-07-23T09:58:47;5.03;;;3.53;;
67595;SDS011;54410;48.694;8.934;2022-07-23T10:01:17;3.60;;;3.30;;
67595;SDS011;54410;48.694;8.934;2022-07-23T10:03:42;4.88;;;3.50;;
67595;SDS011;54410;48.694;8.934;2022-07-23T10:06:09;3.53;;;3.22;;
67595;SDS011;54410;48.694;8.934;2022-07-23T10:08:35;3.70;;;3.40;;
67595;SDS011;54410;48.694;8.934;2022-07-23T10:11:01;4.72;;;3.70;;
67595;SDS011;54410;48.694;8.934;2022-07-23T10:13:28;4.35;;;3.60;;
67595;SDS011;54410;48.694;8.934;2022-07-23T10:16:12;4.00;;;3.70;;
67595;SDS011;54410;48.694;8.934;2022-07-23T10:18:38;4.75;;;3.72;;
67595;SDS011;54410;48.694;8.934;2022-07-23T10:21:05;5.28;;;3.58;;
67595;SDS011;54410;48.694;8.934;2022-07-23T10:23:51;3.70;;;3.30;;
67595;SDS011;54410;48.694;8.934;2022-07-23T10:26:39;4.15;;;3.85;;
67595;SDS011;54410;48.694;8.934;2022-07-23T10:29:18;4.38;;;3.97;;
67595;SDS011;54410;48.694;8.934;2022-07-23T10:39:33;4.38;;;3.97;;
67595;SDS011;54410;48.694;8.934;2022-07-23T10:42:15;4.47;;;4.07;;
67595;SDS011;54410;48.694;8.934;2022-07-23T10:44:47;4.57;;;4.18;;
67595;SDS011;54410;48.694;8.934;2022-07-23T10:47:27;5.03;;;4.25;;
67595;SDS011;54410;48.694;8.934;2022-07-23T10:50:25;4.97;;;4.57;;
67595;SDS011;54410;48.694;8.934;2022-07-23T10:58:04;4.80;;;4.30;;
67595;SDS011;54410;48.694;8.934;2022-07-23T11:00:31;4.65;;;4.07;;
67595;SDS011;54410;48.694;8.934;2022-07-23T11:02:58;4.57;;;4.18;;
67595;SDS011;54410;48.694;8.934;2022-07-23T11:05:45;5.00;;;4.60;;
67595;SDS011;54410;48.694;8.934;2022-07-23T11:08:12;4.70;;;4.40;;
67595;SDS011;54410;48.694;8.934;2022-07-23T11:10:41;5.13;;;4.72;;
67595;SDS011;54410;48.694;8.934;2022-07-23T11:18:54;5.13;;;4.60;;
67595;SDS011;54410;48.694;8.934;2022-07-23T11:24:10;4.82;;;4.43;;
67595;SDS011;54410;48.694;8.934;2022-07-23T11:32:06;5.47;;;4.95;;
67595;SDS011;54410;48.694;8.934;2022-07-23T11:34:43;5.32;;;4.82;;
67595;SDS011;54410;48.694;8.934;2022-07-23T11:37:26;5.22;;;4.72;;
67595;SDS011;54410;48.694;8.934;2022-07-23T11:40:00;4.80;;;4.40;;
67595;SDS011;54410;48.694;8.934;2022-07-23T11:42:26;5.03;;;4.55;;
67595;SDS011;54410;48.694;8.934;2022-07-23T11:44:51;5.50;;;4.57;;
67595;SDS011;54410;48.694;8.934;2022-07-23T11:47:21;5.10;;;4.70;;
67595;SDS011;54410;48.694;8.934;2022-07-23T11:49:51;6.97;;;4.90;;
67595;SDS011;54410;48.694;8.934;2022-07-23T11:52:21;5.30;;;4.78;;
67595;SDS011;54410;48.694;8.934;2022-07-23T11:57:13;5.75;;;5.25;;
67595;SDS011;54410;48.694;8.934;2022-07-23T11:59:39;5.20;;;4.80;;
67595;SDS011;54410;48.694;8.934;2022-07-23T12:02:06;4.97;;;4.65;;
67595;SDS011;54410;48.694;8.934;2022-07-23T12:04:42;5.53;;;5.03;;
67595;SDS011;54410;48.694;8.934;2022-07-23T12:09:58;6.20;;;5.10;;
67595;SDS011;54410;48.694;8.934;2022-07-23T12:12:24;5.28;;;4.88;;
67595;SDS011;54410;48.694;8.934;2022-07-23T12:14:51;6.25;;;5.00;;
67595;SDS011;54410;48.694;8.934;2022-07-23T12:17:27;6.15;;;5.22;;
67595;SDS011;54410;48.694;8.934;2022-07-23T12:19:58;5.40;;;4.90;;
67595;SDS011;54410;48.694;8.934;2022-07-23T12:22:25;5.82;;;5.28;;
67595;SDS011;54410;48.694;8.934;2022-07-23T12:24:56;7.72;;;5.35;;
67595;SDS011;54410;48.694;8.934;2022-07-23T12:27:23;5.68;;;5.18;;
67595;SDS011;54410;48.694;8.934;2022-07-23T12:29:49;5.72;;;5.22;;
67595;SDS011;54410;48.694;8.934;2022-07-23T12:32:22;6.20;;;5.05;;
67595;SDS011;54410;48.694;8.934;2022-07-23T12:35:03;7.13;;;4.75;;
67595;SDS011;54410;48.694;8.934;2022-07-23T12:37:33;5.65;;;5.03;;
67595;SDS011;54410;48.694;8.934;2022-07-23T12:40:17;5.47;;;4.75;;
67595;SDS011;54410;48.694;8.934;2022-07-23T12:42:52;8.75;;;5.10;;
67595;SDS011;54410;48.694;8.934;2022-07-23T12:45:18;31.40;;;5.63;;
67595;SDS011;54410;48.694;8.934;2022-07-23T12:47:51;14.40;;;5.40;;
67595;SDS011;54410;48.694;8.934;2022-07-23T12:53:04;6.35;;;4.97;;
67595;SDS011;54410;48.694;8.934;2022-07-23T12:55:35;7.78;;;5.00;;
67595;SDS011;54410;48.694;8.934;2022-07-23T12:58:05;7.25;;;5.20;;
67595;SDS011;54410;48.694;8.934;2022-07-23T13:00:32;5.68;;;5.07;;
67595;SDS011;54410;48.694;8.934;2022-07-23T13:03:21;5.38;;;4.97;;
67595;SDS011;54410;48.694;8.934;2022-07-23T13:06:02;5.13;;;4.63;;
67595;SDS011;54410;48.694;8.934;2022-07-23T13:08:29;5.07;;;4.57;;
67595;SDS011;54410;48.694;8.934;2022-07-23T13:10:56;6.25;;;4.82;;
67595;SDS011;54410;48.694;8.934;2022-07-23T13:13:24;5.40;;;4.82;;
67595;SDS011;54410;48.694;8.934;2022-07-23T13:15:50;5.75;;;5.13;;
67595;SDS011;54410;48.694;8.934;2022-07-23T13:18:17;5.68;;;5.18;;
67595;SDS011;54410;48.694;8.934;2022-07-23T13:20:44;5.55;;;5.05;;
67595;SDS011;54410;48.694;8.934;2022-07-23T13:23:10;5.70;;;5.13;;
67595;SDS011;54410;48.694;8.934;2022-07-23T13:25:36;6.00;;;5.30;;
67595;SDS011;54410;48.694;8.934;2022-07-23T13:28:02;5.75;;;5.20;;
67595;SDS011;54410;48.694;8.934;2022-07-23T13:30:28;5.95;;;5.45;;
67595;SDS011;54410;48.694;8.934;2022-07-23T13:32:54;5.88;;;5.35;;
67595;SDS011;54410;48.694;8.934;2022-07-23T13:35:20;5.70;;;5.20;;
67595;SDS011;54410;48.694;8.934;2022-07-23T13:37:46;6.25;;;5.32;;
67595;SDS011;54410;48.694;8.934;2022-07-23T13:40:12;5.97;;;5.28;;
67595;SDS011;54410;48.694;8.934;2022-07-23T13:42:37;5.47;;;4.63;;
67595;SDS011;54410;48.694;8.934;2022-07-23T13:45:04;5.65;;;5.10;;
67595;SDS011;54410;48.694;8.934;2022-07-23T13:47:30;5.95;;;5.35;;
67595;SDS011;54410;48.694;8.934;2022-07-23T13:49:56;6.30;;;5.22;;
67595;SDS011;54410;48.694;8.934;2022-07-23T13:52:22;6.65;;;4.95;;
67595;SDS011;54410;48.694;8.934;2022-07-23T13:54:49;5.57;;;4.90;;
67595;SDS011;54410;48.694;8.934;2022-07-23T13:57:15;5.82;;;5.32;;
67595;SDS011;54410;48.694;8.934;2022-07-23T13:59:40;5.90;;;5.25;;
67595;SDS011;54410;48.694;8.934;2022-07-23T14:02:06;5.95;;;5.35;;
67595;SDS011;54410;48.694;8.934;2022-07-23T14:04:32;5.68;;;5.18;;
67595;SDS011;54410;48.694;8.934;2022-07-23T14:06:58;5.18;;;4.78;;
67595;SDS011;54410;48.694;8.934;2022-07-23T14:09:23;7.25;;;5.53;;
67595;SDS011;54410;48.694;8.934;2022-07-23T14:11:49;7.18;;;5.28;;
67595;SDS011;54410;48.694;8.934;2022-07-23T14:14:16;5.47;;;4.97;;
67595;SDS011;54410;48.694;8.934;2022-07-23T14:16:42;5.68;;;5.07;;
67595;SDS011;54410;48.694;8.934;2022-07-23T14:19:08;6.93;;;5.43;;
67595;SDS011;54410;48.694;8.934;2022-07-23T14:21:34;6.93;;;5.40;;
67595;SDS011;54410;48.694;8.934;2022-07-23T14:24:00;5.82;;;5.07;;
67595;SDS011;54410;48.694;8.934;2022-07-23T14:26:26;5.53;;;5.07;;
67595;SDS011;54410;48.694;8.934;2022-07-23T14:28:52;6.18;;;5.55;;
67595;SDS011;54410;48.694;8.934;2022-07-23T14:31:17;5.45;;;4.90;;
67595;SDS011;54410;48.694;8.934;2022-07-23T14:33:43;5.97;;;5.03;;
67595;SDS011;54410;48.694;8.934;2022-07-23T14:36:09;5.32;;;4.80;;
67595;SDS011;54410;48.694;8.934;2022-07-23T14:38:35;7.15;;;5.28;;
67595;SDS011;54410;48.694;8.934;2022-07-23T14:41:01;7.75;;;5.30;;
67595;SDS011;54410;48.694;8.934;2022-07-23T14:43:27;6.13;;;5.20;;
67595;SDS011;54410;48.694;8.934;2022-07-23T14:45:52;6.63;;;5.30;;
67595;SDS011;54410;48.694;8.934;2022-07-23T14:48:18;5.53;;;5.00;;
67595;SDS011;54410;48.694;8.934;2022-07-23T14:50:44;5.63;;;4.78;;
67595;SDS011;54410;48.694;8.934;2022-07-23T14:53:10;5.40;;;4.90;;
67595;SDS011;54410;48.694;8.934;2022-07-23T14:55:36;5.13;;;4.70;;
67595;SDS011;54410;48.694;8.934;2022-07-23T14:58:02;5.30;;;4.50;;
67595;SDS011;54410;48.694;8.934;2022-07-23T15:00:27;6.85;;;5.00;;
67595;SDS011;54410;48.694;8.934;2022-07-23T15:02:53;6.43;;;5.13;;
67595;SDS011;54410;48.694;8.934;2022-07-23T15:05:19;5.30;;;4.80;;
67595;SDS011;54410;48.694;8.934;2022-07-23T15:07:44;6.05;;;5.25;;
67595;SDS011;54410;48.694;8.934;2022-07-23T15:10:11;5.35;;;4.88;;
67595;SDS011;54410;48.694;8.934;2022-07-23T15:12:37;5.30;;;4.78;;
67595;SDS011;54410;48.694;8.934;2022-07-23T15:15:03;5.70;;;5.03;;
67595;SDS011;54410;48.694;8.934;2022-07-23T15:17:29;6.43;;;4.80;;
67595;SDS011;54410;48.694;8.934;2022-07-23T15:19:55;5.28;;;4.85;;
67595;SDS011;54410;48.694;8.934;2022-07-23T15:22:21;6.28;;;5.03;;
67595;SDS011;54410;48.694;8.934;2022-07-23T15:24:47;7.40;;;5.68;;
67595;SDS011;54410;48.694;8.934;2022-07-23T15:27:13;5.60;;;5.10;;
67595;SDS011;54410;48.694;8.934;2022-07-23T15:29:39;14.38;;;6.72;;
67595;SDS011;54410;48.694;8.934;2022-07-23T15:32:05;7.53;;;6.10;;